Time;durP1;ratioP1;P1;durP2;ratioP2;P2;SDS_P1;SDS_P2;PMS_P1;PMS_P2;Temp;Humidity;BMP_temperature;BMP_pressure;BME280_temperature;BME280_humidity;BME280_pressure;Samples;Min_cycle;Max_cycle;Signal;HPM_P1;HPM_P2
2022/04/04 00:00:19;;;;;;;5.30;2.50;;;;;;;1.69;100.00;101531.00;10421805;28;20037;-71
2022/04/04 00:05:21;;;;;;;5.25;2.90;;;;;;;1.69;100.00;101514.72;10399394;28;20026;-71
2022/04/04 00:10:21;;;;;;;4.65;2.03;;;;;;;1.69;100.00;101501.97;10372038;28;20030;-72
2022/04/04 00:15:22;;;;;;;3.92;2.33;;;;;;;1.75;100.00;101482.25;10388798;28;20037;-73
2022/04/04 00:20:22;;;;;;;5.18;2.88;;;;;;;1.78;100.00;101464.78;10403427;28;20037;-72
2022/04/04 00:25:23;;;;;;;5.35;2.70;;;;;;;1.85;100.00;101462.19;10396490;28;20089;-72
2022/04/04 00:30:23;;;;;;;5.18;2.80;;;;;;;1.84;100.00;101436.91;10431630;28;20040;-71
2022/04/04 00:35:24;;;;;;;4.18;3.05;;;;;;;1.94;100.00;101442.06;10396940;28;20057;-72
2022/04/04 00:40:25;;;;;;;5.70;2.80;;;;;;;2.00;100.00;101438.59;10387224;28;20114;-72
2022/04/04 00:45:26;;;;;;;4.85;3.15;;;;;;;1.99;100.00;101428.78;10387619;28;20049;-72
2022/04/04 00:50:26;;;;;;;9.45;3.67;;;;;;;2.03;100.00;101421.97;10370717;28;20042;-71
2022/04/04 00:55:27;;;;;;;6.78;3.85;;;;;;;2.10;100.00;101413.91;10389033;28;20064;-72
2022/04/04 01:00:28;;;;;;;6.38;3.20;;;;;;;1.86;100.00;101353.41;10388387;28;20030;-71
2022/04/04 01:05:30;;;;;;;8.32;3.50;;;;;;;1.99;100.00;101363.63;10407075;28;20034;-72
2022/04/04 01:10:30;;;;;;;6.15;3.90;;;;;;;2.20;100.00;101379.16;10424589;28;20037;-72
2022/04/04 01:15:32;;;;;;;7.03;3.42;;;;;;;2.20;100.00;101361.00;10393459;28;20366;-72
2022/04/04 01:20:34;;;;;;;6.10;3.83;;;;;;;2.22;100.00;101336.34;10426968;28;20050;-71
2022/04/04 01:25:37;;;;;;;6.78;3.95;;;;;;;2.21;100.00;101319.22;10411156;28;20046;-72
2022/04/04 01:30:38;;;;;;;7.47;4.50;;;;;;;2.32;100.00;101330.66;10412269;28;20061;-71
2022/04/04 01:35:39;;;;;;;6.53;3.97;;;;;;;2.25;100.00;101286.22;10411080;28;20064;-71
2022/04/04 01:40:39;;;;;;;8.20;4.78;;;;;;;2.34;100.00;101293.25;10385133;28;20025;-72
2022/04/04 01:51:13;;;;;;;14.60;5.22;;;;;;;2.48;100.00;101270.66;10395012;28;20140;-72
2022/04/04 01:56:13;;;;;;;9.48;6.25;;;;;;;2.53;100.00;101246.44;10386385;28;20513;-72
2022/04/04 02:01:18;;;;;;;11.60;6.35;;;;;;;2.53;100.00;101232.03;10369065;28;20057;-70
2022/04/04 02:06:19;;;;;;;11.63;6.45;;;;;;;2.63;100.00;101225.22;10382921;28;20065;-72
2022/04/04 02:11:22;;;;;;;9.88;6.55;;;;;;;2.60;100.00;101198.44;10368781;28;20037;-70
2022/04/04 02:16:22;;;;;;;11.27;7.15;;;;;;;2.65;100.00;101192.41;10368505;28;20049;-71
2022/04/04 02:21:23;;;;;;;11.77;7.28;;;;;;;2.70;100.00;101187.22;10384796;28;20058;-71
2022/04/04 02:26:23;;;;;;;14.13;8.07;;;;;;;2.67;100.00;101171.31;10385926;28;20062;-71
2022/04/04 02:31:24;;;;;;;15.05;8.57;;;;;;;2.69;100.00;101152.06;10423187;28;20037;-71
2022/04/04 02:36:24;;;;;;;18.88;9.45;;;;;;;2.70;100.00;101134.75;10423225;28;20041;-73
2022/04/04 02:41:25;;;;;;;11.73;8.05;;;;;;;2.75;100.00;101135.84;10426560;28;20022;-71
2022/04/04 02:46:25;;;;;;;16.17;8.93;;;;;;;2.84;100.00;101139.25;10426678;28;20405;-72
2022/04/04 02:51:26;;;;;;;15.15;9.55;;;;;;;2.75;100.00;101094.19;10425650;28;20449;-71
2022/04/04 02:56:29;;;;;;;15.55;9.05;;;;;;;2.87;100.00;101089.91;10426119;28;20017;-72
2022/04/04 03:01:30;;;;;;;17.17;9.75;;;;;;;2.83;100.00;101080.44;10417254;28;20030;-71
2022/04/04 03:06:30;;;;;;;18.98;9.55;;;;;;;2.99;100.00;101082.88;10372940;28;20062;-71
2022/04/04 03:11:31;;;;;;;14.13;9.25;;;;;;;3.02;100.00;101049.84;10374596;28;20038;-72
2022/04/04 03:16:31;;;;;;;17.42;9.50;;;;;;;3.14;100.00;101030.22;10391287;28;20025;-72
2022/04/04 03:21:32;;;;;;;19.65;10.95;;;;;;;2.73;100.00;100936.72;10375846;28;20057;-71
2022/04/04 03:26:32;;;;;;;16.80;9.98;;;;;;;3.43;100.00;101007.31;10392163;28;20033;-71
2022/04/04 03:31:33;;;;;;;14.43;9.52;;;;;;;3.54;100.00;100995.84;10377837;28;20048;-72
2022/04/04 03:36:33;;;;;;;18.00;9.93;;;;;;;3.68;100.00;100990.44;10373775;28;20033;-71
2022/04/04 03:41:34;;;;;;;17.98;10.25;;;;;;;3.79;100.00;100985.22;10391036;28;20025;-72
2022/04/04 03:46:34;;;;;;;18.25;11.35;;;;;;;3.73;100.00;100947.94;10391139;28;20044;-71
2022/04/04 03:51:35;;;;;;;23.05;10.13;;;;;;;3.87;100.00;100958.84;10431129;28;20029;-69
2022/04/04 03:56:35;;;;;;;12.63;8.82;;;;;;;3.86;100.00;100930.75;10414982;28;20052;-72
2022/04/04 04:01:36;;;;;;;19.48;10.65;;;;;;;3.88;100.00;100922.38;10414185;28;20041;-71
2022/04/04 04:06:36;;;;;;;18.35;11.35;;;;;;;3.87;100.00;100893.50;10402466;28;20029;-73
2022/04/04 04:11:37;;;;;;;19.58;10.32;;;;;;;3.92;100.00;100893.69;10405898;28;20033;-73
2022/04/04 04:16:37;;;;;;;18.83;12.00;;;;;;;3.94;100.00;100872.53;10395554;28;20041;-72
2022/04/04 04:21:38;;;;;;;20.15;11.55;;;;;;;3.92;100.00;100869.19;10413994;28;20138;-72
2022/04/04 04:26:40;;;;;;;18.23;11.85;;;;;;;3.90;100.00;100844.03;10397660;28;20105;-72
2022/04/04 04:31:40;;;;;;;22.75;12.52;;;;;;;3.76;100.00;100811.38;10390315;28;20033;-72
2022/04/04 04:36:41;;;;;;;19.25;12.57;;;;;;;3.79;100.00;100821.00;10386932;28;20041;-73
2022/04/04 04:41:41;;;;;;;28.98;15.00;;;;;;;3.83;100.00;100823.09;10382125;28;20502;-73
2022/04/04 04:46:42;;;;;;;21.95;12.40;;;;;;;3.75;100.00;100803.41;10387775;28;20037;-73
2022/04/04 04:51:42;;;;;;;20.85;13.45;;;;;;;3.74;100.00;100788.97;10356306;28;20046;-73
2022/04/04 04:56:43;;;;;;;21.27;12.40;;;;;;;3.71;100.00;100769.50;10372138;28;20080;-72
2022/04/04 05:01:44;;;;;;;23.30;12.80;;;;;;;3.66;100.00;100756.50;10350765;28;20044;-73
2022/04/04 05:06:49;;;;;;;22.27;13.18;;;;;;;3.71;100.00;100751.25;10413875;28;20037;-73
2022/04/04 05:11:49;;;;;;;26.38;14.07;;;;;;;3.62;100.00;100706.25;10370239;28;20080;-72
2022/04/04 05:16:50;;;;;;;26.70;13.45;;;;;;;3.59;100.00;100693.88;10386728;28;20038;-73
2022/04/04 05:21:51;;;;;;;19.85;12.00;;;;;;;3.61;100.00;100696.41;10371064;28;20046;-72
2022/04/04 05:26:52;;;;;;;22.30;14.13;;;;;;;3.66;100.00;100695.75;10390274;28;20034;-73
2022/04/04 05:31:54;;;;;;;20.33;12.18;;;;;;;3.67;100.00;100686.56;10426522;28;20033;-73
2022/04/04 05:36:54;;;;;;;22.85;12.88;;;;;;;3.68;100.00;100683.63;10384586;28;20093;-72
2022/04/04 05:41:55;;;;;;;21.42;13.70;;;;;;;3.62;100.00;100658.09;10369264;28;20096;-73
2022/04/04 05:46:55;;;;;;;19.33;12.85;;;;;;;3.64;100.00;100655.16;10385550;28;20049;-73
2022/04/04 05:51:56;;;;;;;20.83;13.40;;;;;;;3.64;100.00;100649.72;10370177;28;20034;-72
2022/04/04 05:56:56;;;;;;;29.85;15.40;;;;;;;3.63;100.00;100643.41;10385616;28;20037;-74
2022/04/04 06:01:57;;;;;;;22.02;14.20;;;;;;;3.55;100.00;100621.03;10352440;28;20151;-73
2022/04/04 06:06:57;;;;;;;27.73;14.68;;;;;;;3.59;100.00;100620.38;10376140;28;20331;-74
2022/04/04 06:11:58;;;;;;;22.15;14.60;;;;;;;3.54;100.00;100616.66;10383946;28;20037;-73
2022/04/04 06:16:58;;;;;;;25.95;15.60;;;;;;;3.52;100.00;100619.59;10385097;28;20046;-71
2022/04/04 06:21:59;;;;;;;23.08;14.15;;;;;;;3.49;100.00;100600.94;10352935;28;20061;-71
2022/04/04 06:27:00;;;;;;;23.80;14.82;;;;;;;3.50;100.00;100604.53;10386331;28;20034;-75
2022/04/04 06:32:00;;;;;;;27.50;17.52;;;;;;;3.49;100.00;100597.41;10350718;28;20093;-72
2022/04/04 06:37:01;;;;;;;27.98;16.52;;;;;;;3.43;100.00;100594.50;10385072;28;20030;-73
2022/04/04 06:42:02;;;;;;;28.73;17.20;;;;;;;3.36;100.00;100566.47;10416566;28;20033;-73
2022/04/04 06:47:04;;;;;;;27.50;17.60;;;;;;;3.38;100.00;100561.63;10432824;28;20026;-72
2022/04/04 06:52:04;;;;;;;25.85;17.23;;;;;;;3.44;100.00;100554.50;10418221;28;20053;-71
2022/04/04 06:57:05;;;;;;;27.00;17.83;;;;;;;3.35;100.00;100534.88;10417644;28;20018;-72
2022/04/04 07:02:06;;;;;;;30.27;18.33;;;;;;;3.36;100.00;100541.13;10416593;28;20263;-73
2022/04/04 07:07:09;;;;;;;27.17;16.65;;;;;;;2.93;100.00;100474.53;10415913;28;20026;-74
2022/04/04 07:12:10;;;;;;;33.22;17.38;;;;;;;3.29;100.00;100511.25;10423835;28;20032;-71
2022/04/04 07:17:10;;;;;;;28.08;16.42;;;;;;;3.20;100.00;100507.06;10433568;28;20029;-70
2022/04/04 07:22:11;;;;;;;31.23;18.75;;;;;;;3.27;100.00;100499.75;10436414;28;20080;-70
2022/04/04 07:27:11;;;;;;;25.95;17.20;;;;;;;3.27;100.00;100463.53;10448281;28;20042;-71
2022/04/04 07:32:12;;;;;;;28.58;16.45;;;;;;;3.28;100.00;100441.53;10432144;28;20025;-70
2022/04/04 07:37:13;;;;;;;24.17;16.90;;;;;;;3.44;100.00;100454.63;10418633;28;20032;-70
2022/04/04 07:42:13;;;;;;;24.42;16.65;;;;;;;3.42;100.00;100451.31;10449316;28;20033;-70
2022/04/04 07:47:14;;;;;;;28.13;18.40;;;;;;;3.49;100.00;100444.97;10453013;28;20038;-71
2022/04/04 07:52:14;;;;;;;27.17;18.10;;;;;;;3.47;100.00;100419.88;10445401;28;20022;-70
2022/04/04 07:57:15;;;;;;;26.70;18.27;;;;;;;3.33;100.00;100389.19;10452891;28;20025;-71
2022/04/04 08:02:15;;;;;;;27.88;17.15;;;;;;;3.49;100.00;100410.44;10449220;28;20029;-69
2022/04/04 08:07:19;;;;;;;27.55;19.20;;;;;;;3.54;100.00;100401.63;10450672;28;20029;-69
2022/04/04 08:12:20;;;;;;;32.38;20.67;;;;;;;3.59;100.00;100369.13;10435194;28;20044;-70
2022/04/04 08:17:20;;;;;;;30.15;17.95;;;;;;;3.61;100.00;100369.75;10409300;28;20018;-70
2022/04/04 08:22:22;;;;;;;27.90;19.20;;;;;;;3.63;100.00;100354.03;10409066;28;20046;-70
2022/04/04 08:27:23;;;;;;;32.50;18.92;;;;;;;3.73;100.00;100353.53;10391685;28;20044;-69
2022/04/04 08:32:23;;;;;;;31.65;18.75;;;;;;;3.84;100.00;100350.94;10372618;28;20034;-72
2022/04/04 08:37:24;;;;;;;27.60;18.35;;;;;;;3.91;100.00;100336.44;10430787;28;20351;-71
2022/04/04 08:42:27;;;;;;;28.60;18.20;;;;;;;3.96;100.00;100326.50;10421188;28;20060;-69
2022/04/04 08:47:29;;;;;;;21.55;15.13;;;;;;;3.95;100.00;100294.03;10388739;28;20042;-69
2022/04/04 08:52:29;;;;;;;17.83;13.27;;;;;;;4.10;100.00;100304.59;10388330;28;20117;-69
2022/04/04 08:57:30;;;;;;;21.35;14.55;;;;;;;4.18;100.00;100307.84;10387539;28;20185;-69
2022/04/04 09:02:32;;;;;;;18.77;12.10;;;;;;;4.25;100.00;100294.16;10387564;28;20517;-69
2022/04/04 09:07:32;;;;;;;17.05;10.02;;;;;;;4.32;100.00;100285.88;10386155;28;20030;-69
2022/04/04 09:12:33;;;;;;;14.63;9.20;;;;;;;4.41;100.00;100290.81;10355100;28;20099;-70
2022/04/04 09:17:33;;;;;;;13.70;8.10;;;;;;;4.42;100.00;100269.84;10388477;28;20030;-69
2022/04/04 09:22:33;;;;;;;10.30;7.97;;;;;;;4.55;100.00;100258.78;10387361;28;20069;-70
2022/04/04 09:27:36;;;;;;;10.18;6.35;;;;;;;4.62;100.00;100248.59;10424599;28;20068;-69
2022/04/04 09:32:40;;;;;;;9.65;4.38;;;;;;;4.68;100.00;100251.50;10411489;28;20041;-69
2022/04/04 09:37:45;;;;;;;5.82;4.25;;;;;;;4.75;100.00;100257.66;10411222;28;20839;-69
2022/04/04 09:42:52;;;;;;;5.57;2.60;;;;;;;4.79;100.00;100228.88;10428012;28;20187;-68
2022/04/04 09:48:04;;;;;;;3.72;2.33;;;;;;;4.79;100.00;100209.78;10429796;28;20022;-68
2022/04/04 09:53:07;;;;;;;4.97;2.65;;;;;;;4.75;100.00;100171.22;10417784;28;20036;-67
2022/04/04 09:58:09;;;;;;;6.18;2.40;;;;;;;4.98;100.00;100202.34;10384854;28;20034;-69
2022/04/04 10:03:12;;;;;;;4.57;2.17;;;;;;;4.98;100.00;100175.94;10369450;28;20517;-69
2022/04/04 10:08:17;;;;;;;4.30;2.58;;;;;;;5.00;100.00;100168.34;10369969;28;20044;-69
2022/04/04 10:13:17;;;;;;;4.28;2.70;;;;;;;4.95;100.00;100138.19;10385178;28;20057;-70
2022/04/04 10:18:18;;;;;;;3.85;2.53;;;;;;;5.00;100.00;100165.63;10385756;28;20038;-70
2022/04/04 10:23:20;;;;;;;3.75;2.70;;;;;;;5.00;100.00;100157.44;10385519;28;20100;-69
2022/04/04 10:28:31;;;;;;;3.92;2.95;;;;;;;5.05;100.00;100151.25;10392465;28;20034;-69
2022/04/04 10:33:32;;;;;;;6.47;3.70;;;;;;;4.99;100.00;100144.03;10424077;28;20052;-71
2022/04/04 10:38:45;;;;;;;4.68;3.65;;;;;;;5.08;100.00;100136.31;10410764;28;20038;-69
2022/04/04 10:43:47;;;;;;;6.32;4.00;;;;;;;5.19;100.00;100121.84;10426580;28;20501;-69
2022/04/04 10:48:49;;;;;;;5.75;3.70;;;;;;;5.20;100.00;100126.22;10392609;28;20038;-69
2022/04/04 10:53:53;;;;;;;7.35;4.25;;;;;;;5.26;100.00;100098.81;10368277;28;20038;-70
2022/04/04 10:59:13;;;;;;;5.95;3.88;;;;;;;5.28;100.00;100090.41;10384871;28;20037;-70
2022/04/04 11:04:23;;;;;;;6.20;4.47;;;;;;;5.37;100.00;100096.31;10386814;28;20053;-69
2022/04/04 11:09:26;;;;;;;7.95;4.07;;;;;;;5.29;100.00;100078.41;10351683;28;20149;-71
2022/04/04 11:14:27;;;;;;;8.18;4.53;;;;;;;5.38;100.00;100101.53;10410461;28;20040;-70
2022/04/04 11:19:28;;;;;;;8.15;4.00;;;;;;;5.44;100.00;100089.66;10446427;28;20053;-69
2022/04/04 11:24:31;;;;;;;7.07;4.72;;;;;;;5.49;100.00;100069.00;10454621;28;20052;-72
2022/04/04 11:29:32;;;;;;;6.07;4.18;;;;;;;5.49;100.00;100071.75;10406221;28;20042;-69
2022/04/04 11:34:36;;;;;;;8.98;3.92;;;;;;;5.53;100.00;100062.81;10433034;28;20033;-71
2022/04/04 11:39:36;;;;;;;5.65;3.97;;;;;;;5.62;100.00;100052.34;10416193;28;20105;-71
2022/04/04 11:44:44;;;;;;;3.53;2.95;;;;;;;5.70;100.00;100056.59;10413337;28;20121;-71
2022/04/04 11:49:46;;;;;;;3.72;3.08;;;;;;;5.74;100.00;100049.59;10391128;28;20068;-71
2022/04/04 11:54:51;;;;;;;4.93;3.22;;;;;;;5.77;100.00;100041.75;10386577;28;20065;-71
2022/04/04 11:59:53;;;;;;;6.03;3.28;;;;;;;5.91;100.00;100046.91;10400982;28;20087;-70
2022/04/04 12:04:56;;;;;;;6.68;2.88;;;;;;;6.04;100.00;100022.88;10393226;28;20094;-70
2022/04/04 12:09:59;;;;;;;5.05;2.55;;;;;;;6.00;100.00;100010.78;10391159;28;20034;-70
2022/04/04 12:14:59;;;;;;;4.07;2.70;;;;;;;6.06;100.00;100011.72;10372618;28;20034;-71
2022/04/04 12:20:00;;;;;;;3.38;2.00;;;;;;;5.87;100.00;99964.63;10430163;28;20050;-71
2022/04/04 12:25:02;;;;;;;3.13;2.10;;;;;;;6.25;100.00;100007.69;10414515;28;20029;-70
2022/04/04 12:30:04;;;;;;;4.85;2.30;;;;;;;6.20;100.00;100007.59;10393491;28;20042;-70
2022/04/04 12:35:08;;;;;;;7.43;2.25;;;;;;;6.25;100.00;99985.81;10373055;28;20026;-70
2022/04/04 12:40:13;;;;;;;5.63;2.38;;;;;;;6.33;100.00;100000.16;10373134;28;20030;-71
2022/04/04 12:45:15;;;;;;;2.85;1.63;;;;;;;6.42;100.00;99987.72;10428575;28;20111;-71
2022/04/04 12:50:16;;;;;;;4.45;1.38;;;;;;;6.50;100.00;99989.22;10450836;28;20039;-69
2022/04/04 12:55:17;;;;;;;4.38;1.50;;;;;;;6.47;100.00;99985.09;10413073;28;20282;-69
2022/04/04 13:00:28;;;;;;;2.95;1.40;;;;;;;6.49;100.00;99972.00;10430288;28;20090;-70
2022/04/04 13:05:28;;;;;;;2.03;1.75;;;;;;;6.61;100.00;99975.44;10447204;28;20030;-70
2022/04/04 13:10:29;;;;;;;3.47;1.30;;;;;;;6.71;100.00;99973.94;10426872;28;20060;-70
2022/04/04 13:15:39;;;;;;;2.65;1.20;;;;;;;6.72;100.00;99956.44;10448488;28;20124;-69
2022/04/04 13:20:39;;;;;;;2.55;1.13;;;;;;;6.80;100.00;99958.75;10451287;28;20108;-70
2022/04/04 13:25:40;;;;;;;1.30;0.88;;;;;;;6.92;100.00;99948.53;10455935;28;20045;-70
2022/04/04 13:30:40;;;;;;;1.48;1.05;;;;;;;7.07;100.00;99953.41;10445781;28;20044;-71
2022/04/04 13:35:41;;;;;;;1.40;1.10;;;;;;;7.05;100.00;99942.69;10458080;28;20029;-70
2022/04/04 13:40:41;;;;;;;2.80;1.30;;;;;;;7.23;100.00;99949.75;10462608;28;20028;-71
2022/04/04 13:45:42;;;;;;;1.85;1.20;;;;;;;7.29;100.00;99936.94;10428518;28;20033;-71
2022/04/04 13:50:42;;;;;;;1.40;0.95;;;;;;;7.33;100.00;99929.88;10428718;28;20045;-71
2022/04/04 13:55:43;;;;;;;1.23;0.90;;;;;;;7.32;100.00;99927.38;10395947;28;20033;-72
2022/04/04 14:00:43;;;;;;;1.60;1.00;;;;;;;7.41;100.00;99934.91;10422926;28;20034;-73
2022/04/04 14:05:44;;;;;;;1.10;0.80;;;;;;;7.47;100.00;99927.59;10385840;28;20037;-72
2022/04/04 14:10:44;;;;;;;1.35;0.95;;;;;;;7.59;100.00;99924.72;10369798;28;20026;-72
2022/04/04 14:15:45;;;;;;;2.25;1.00;;;;;;;7.54;100.00;99921.91;10367906;28;20034;-72
2022/04/04 14:20:46;;;;;;;2.90;1.00;;;;;;;7.63;100.00;99934.88;10385668;28;20068;-72
2022/04/04 14:25:46;;;;;;;3.13;1.30;;;;;;;7.67;100.00;99937.94;10387246;28;20041;-71
2022/04/04 14:30:49;;;;;;;2.55;2.05;;;;;;;7.75;100.00;99945.69;10369717;28;20081;-72
2022/04/04 14:35:49;;;;;;;7.43;2.67;;;;;;;7.79;100.00;99952.31;10367898;28;20026;-72
2022/04/04 14:40:50;;;;;;;4.63;2.25;;;;;;;7.83;100.00;99958.94;10406675;28;20037;-73
2022/04/04 14:45:50;;;;;;;4.30;2.10;;;;;;;7.99;100.00;99956.31;10393638;28;20026;-71
2022/04/04 14:50:51;;;;;;;4.45;2.17;;;;;;;8.12;100.00;99961.38;10410445;28;20018;-73
2022/04/04 14:55:54;;;;;;;6.10;2.60;;;;;;;8.31;100.00;99963.72;10427970;28;20030;-72
2022/04/04 15:00:56;;;;;;;10.60;3.85;;;;;;;8.33;100.00;99956.06;10434572;28;20033;-72
2022/04/04 15:05:56;;;;;;;7.03;3.60;;;;;;;8.54;100.00;99973.53;10416818;28;20033;-73
2022/04/04 15:10:57;;;;;;;10.45;4.03;;;;;;;8.59;100.00;99960.69;10434883;28;20030;-72
2022/04/04 15:15:58;;;;;;;18.10;5.28;;;;;;;8.69;100.00;99965.44;10413872;28;20486;-73
2022/04/04 15:20:58;;;;;;;14.75;4.35;;;;;;;8.80;100.00;99966.31;10403982;28;20045;-73
2022/04/04 15:25:59;;;;;;;16.95;4.28;;;;;;;8.80;100.00;99977.28;10424236;28;20056;-73
2022/04/04 15:30:59;;;;;;;13.88;4.18;;;;;;;8.76;100.00;99973.41;10422251;28;20049;-72
2022/04/04 15:36:00;;;;;;;15.13;3.72;;;;;;;8.43;100.00;99923.25;10419105;28;20072;-72
2022/04/04 15:41:00;;;;;;;14.10;2.92;;;;;;;8.68;100.00;99972.84;10419940;28;20332;-73
2022/04/04 15:46:01;;;;;;;16.75;4.10;;;;;;;8.75;100.00;99980.03;10419070;28;20024;-70
2022/04/04 15:51:01;;;;;;;14.02;3.45;;;;;;;8.64;100.00;99968.97;10402579;28;20125;-72
2022/04/04 15:56:02;;;;;;;16.63;3.70;;;;;;;8.65;100.00;99976.09;10385220;28;20034;-72
2022/04/04 16:01:02;;;;;;;14.63;4.13;;;;;;;8.64;100.00;99984.59;10398710;28;20037;-72
2022/04/04 16:06:03;;;;;;;20.63;5.25;;;;;;;8.76;100.00;99989.88;10413433;28;20026;-73
2022/04/04 16:11:04;;;;;;;23.15;3.90;;;;;;;8.73;100.00;99972.03;10397283;28;20026;-73
2022/04/04 16:16:05;;;;;;;16.98;3.25;;;;;;;8.74;100.00;99986.59;10396254;28;20033;-72
2022/04/04 16:21:09;;;;;;;15.48;4.05;;;;;;;8.75;100.00;99988.25;10397657;28;20138;-72
2022/04/04 16:26:10;;;;;;;20.58;4.95;;;;;;;8.67;100.00;100001.34;10419580;28;20103;-72
2022/04/04 16:31:11;;;;;;;16.30;4.28;;;;;;;8.66;100.00;99994.22;10400266;28;20038;-72
2022/04/04 16:36:12;;;;;;;18.95;3.20;;;;;;;8.60;100.00;100013.63;10390115;28;20042;-73
2022/04/04 16:41:16;;;;;;;13.20;3.05;;;;;;;8.52;100.00;100019.63;10389048;28;20053;-72
2022/04/04 16:46:17;;;;;;;19.55;3.22;;;;;;;8.48;100.00;100033.03;10372010;28;20041;-74
2022/04/04 16:51:18;;;;;;;22.73;4.03;;;;;;;8.30;100.00;100023.25;10373256;28;20033;-72
2022/04/04 16:56:18;;;;;;;15.30;3.55;;;;;;;8.11;100.00;100028.28;10389456;28;20030;-74
2022/04/04 17:01:19;;;;;;;18.02;4.00;;;;;;;8.14;100.00;100041.44;10387671;28;20038;-73
2022/04/04 17:06:19;;;;;;;17.27;3.28;;;;;;;8.11;100.00;100055.69;10389364;28;20030;-74
2022/04/04 17:11:20;;;;;;;18.20;3.60;;;;;;;8.10;100.00;100037.56;10388129;28;20313;-73
2022/04/04 17:16:22;;;;;;;15.57;4.15;;;;;;;8.01;100.00;100044.63;10371100;28;20026;-74
2022/04/04 17:21:23;;;;;;;20.92;3.22;;;;;;;7.98;100.00;100047.84;10387265;28;20065;-73
2022/04/04 17:26:23;;;;;;;16.63;2.47;;;;;;;7.66;100.00;99997.34;10389314;28;20037;-73
2022/04/04 17:31:24;;;;;;;25.27;4.43;;;;;;;7.93;100.00;100045.06;10386825;28;20045;-73
2022/04/04 17:36:24;;;;;;;18.92;3.10;;;;;;;7.85;100.00;100049.94;10386969;28;20029;-73
2022/04/04 17:41:28;;;;;;;17.00;3.10;;;;;;;7.72;100.00;100036.63;10370567;28;20029;-73
2022/04/04 17:46:28;;;;;;;35.53;7.05;;;;;;;7.82;100.00;100066.06;10386836;28;20045;-72
2022/04/04 17:51:29;;;;;;;16.35;3.70;;;;;;;7.81;100.00;100078.09;10371034;28;20030;-72
2022/04/04 17:56:29;;;;;;;21.33;3.80;;;;;;;7.73;100.00;100079.38;10391096;28;20030;-71
2022/04/04 18:01:30;;;;;;;26.83;4.13;;;;;;;7.71;100.00;100078.81;10426586;28;20052;-73
2022/04/04 18:06:30;;;;;;;23.38;3.65;;;;;;;7.64;100.00;100086.38;10410142;28;20029;-72
2022/04/04 18:11:32;;;;;;;37.00;3.90;;;;;;;7.63;100.00;100080.06;10409928;28;20040;-73
2022/04/04 18:16:34;;;;;;;14.45;2.65;;;;;;;7.41;100.00;100074.56;10410728;28;20017;-73
2022/04/04 18:21:35;;;;;;;24.50;3.30;;;;;;;7.35;100.00;100094.75;10427323;28;20076;-74
2022/04/04 18:26:36;;;;;;;23.60;4.65;;;;;;;7.33;100.00;100096.09;10428189;28;20056;-73
2022/04/04 18:31:37;;;;;;;19.00;3.50;;;;;;;7.08;100.00;100087.22;10409759;28;20083;-72
2022/04/04 18:36:38;;;;;;;30.55;3.35;;;;;;;7.14;100.00;100101.00;10434287;28;20047;-73
2022/04/04 18:41:39;;;;;;;18.85;3.55;;;;;;;7.03;100.00;100092.66;10417812;28;20186;-74
2022/04/04 18:46:40;;;;;;;22.35;4.07;;;;;;;7.14;100.00;100121.00;10436970;28;20025;-73
2022/04/04 18:51:40;;;;;;;26.98;5.45;;;;;;;7.01;100.00;100113.13;10419002;28;20079;-73
2022/04/04 18:56:41;;;;;;;34.53;6.55;;;;;;;7.01;100.00;100122.16;10417513;28;20033;-74
2022/04/04 19:01:42;;;;;;;15.20;3.00;;;;;;;6.99;100.00;100129.81;10417633;28;20045;-73
2022/04/04 19:06:42;;;;;;;20.85;4.00;;;;;;;6.93;100.00;100108.91;10433093;28;20033;-73
2022/04/04 19:11:43;;;;;;;22.25;3.15;;;;;;;6.88;100.00;100108.81;10416537;28;20466;-72
2022/04/04 19:16:44;;;;;;;18.30;4.20;;;;;;;6.81;100.00;100102.69;10434281;28;20018;-72
2022/04/04 19:21:44;;;;;;;20.02;3.92;;;;;;;6.79;100.00;100118.50;10433757;28;20041;-73
2022/04/04 19:26:45;;;;;;;21.88;3.92;;;;;;;6.78;100.00;100136.00;10434274;28;20045;-73
2022/04/04 19:31:45;;;;;;;19.10;3.65;;;;;;;6.78;100.00;100125.06;10416279;28;20034;-74
2022/04/04 19:36:46;;;;;;;18.05;2.65;;;;;;;6.73;100.00;100130.44;10433756;28;20036;-73
2022/04/04 19:41:46;;;;;;;18.13;3.10;;;;;;;6.76;100.00;100124.47;10415439;28;20025;-74
2022/04/04 19:46:47;;;;;;;21.98;4.68;;;;;;;6.84;100.00;100145.94;10415106;28;20425;-74
2022/04/04 19:51:47;;;;;;;21.88;4.20;;;;;;;6.81;100.00;100143.72;10399943;28;20440;-74
2022/04/04 19:56:48;;;;;;;23.73;3.72;;;;;;;6.82;100.00;100146.22;10432405;28;20033;-74
2022/04/04 20:01:48;;;;;;;22.83;3.97;;;;;;;6.85;100.00;100164.88;10397816;28;20049;-74
2022/04/04 20:06:49;;;;;;;24.10;4.95;;;;;;;6.88;100.00;100166.25;10430390;28;20056;-74
2022/04/04 20:11:49;;;;;;;28.67;5.35;;;;;;;6.82;100.00;100145.38;10430286;28;20045;-73
2022/04/04 20:16:50;;;;;;;37.97;7.43;;;;;;;6.85;100.00;100150.34;10415899;28;20032;-73
2022/04/04 20:21:50;;;;;;;20.92;5.45;;;;;;;6.83;100.00;100149.78;10415069;28;20552;-73
2022/04/04 20:26:51;;;;;;;29.70;4.18;;;;;;;6.81;100.00;100151.94;10431633;28;20516;-73
2022/04/04 20:31:51;;;;;;;26.05;5.75;;;;;;;6.77;100.00;100153.50;10392894;28;20064;-73
2022/04/04 20:36:52;;;;;;;23.52;5.07;;;;;;;6.73;100.00;100147.69;10399972;28;20029;-73
2022/04/04 20:41:52;;;;;;;18.58;4.15;;;;;;;5.72;100.00;100006.13;10428339;28;20033;-72
2022/04/04 20:46:53;;;;;;;27.05;4.25;;;;;;;6.73;100.00;100155.06;10412741;28;20021;-72
2022/04/04 20:51:53;;;;;;;26.35;4.90;;;;;;;6.73;100.00;100158.63;10430543;28;20033;-72
2022/04/04 20:56:54;;;;;;;21.20;4.47;;;;;;;6.66;100.00;100153.31;10429309;28;20036;-72
2022/04/04 21:01:54;;;;;;;26.65;5.90;;;;;;;6.62;100.00;100162.28;10395222;28;20038;-73
2022/04/04 21:06:55;;;;;;;22.75;3.83;;;;;;;6.58;100.00;100172.84;10427587;28;20605;-73
2022/04/04 21:11:56;;;;;;;23.30;5.22;;;;;;;6.55;100.00;100167.91;10428019;28;20037;-73
2022/04/04 21:16:57;;;;;;;22.70;4.38;;;;;;;6.54;100.00;100166.22;10413413;28;20029;-72
2022/04/04 21:21:58;;;;;;;23.23;4.18;;;;;;;6.53;100.00;100170.03;10412397;28;20045;-73
2022/04/04 21:26:58;;;;;;;25.08;3.85;;;;;;;6.55;100.00;100178.84;10428580;28;20044;-73
2022/04/04 21:32:00;;;;;;;27.30;4.57;;;;;;;6.55;100.00;100180.72;10429325;28;20061;-72
2022/04/04 21:37:00;;;;;;;16.95;3.50;;;;;;;6.54;100.00;100174.44;10429188;28;20378;-72
2022/04/04 21:42:01;;;;;;;23.23;3.78;;;;;;;6.46;100.00;100169.34;10427656;28;20034;-72
2022/04/04 21:47:01;;;;;;;17.92;3.92;;;;;;;6.40;100.00;100167.59;10393286;28;20025;-72
2022/04/04 21:52:02;;;;;;;24.60;5.55;;;;;;;6.36;100.00;100160.94;10427897;28;20056;-71
2022/04/04 21:57:04;;;;;;;20.50;4.68;;;;;;;6.40;100.00;100148.44;10415393;28;20411;-72
2022/04/04 22:02:05;;;;;;;21.95;4.25;;;;;;;6.37;100.00;100149.78;10390300;28;20053;-72
2022/04/04 22:07:05;;;;;;;12.82;3.50;;;;;;;6.33;100.00;100150.50;10426676;28;20029;-71
2022/04/04 22:12:06;;;;;;;22.90;4.00;;;;;;;6.36;100.00;100163.69;10426965;28;20041;-72
2022/04/04 22:17:06;;;;;;;19.20;3.60;;;;;;;6.31;100.00;100158.13;10427694;28;20057;-72
2022/04/04 22:22:07;;;;;;;16.00;3.20;;;;;;;6.27;100.00;100152.31;10427987;28;20049;-72
2022/04/04 22:27:08;;;;;;;15.85;2.83;;;;;;;6.28;100.00;100155.88;10384595;28;20549;-73
2022/04/04 22:32:11;;;;;;;20.10;4.38;;;;;;;6.28;100.00;100159.41;10402179;28;20054;-73
2022/04/04 22:37:11;;;;;;;12.02;2.95;;;;;;;6.26;100.00;100159.69;10418807;28;20038;-73
2022/04/04 22:42:12;;;;;;;14.48;3.10;;;;;;;6.26;100.00;100164.31;10393710;28;20034;-73
2022/04/04 22:47:12;;;;;;;14.95;3.42;;;;;;;6.29;100.00;100179.41;10359106;28;20045;-73
2022/04/04 22:52:13;;;;;;;13.15;3.22;;;;;;;6.26;100.00;100181.56;10384882;28;20030;-73
2022/04/04 22:57:13;;;;;;;16.65;4.57;;;;;;;6.15;100.00;100168.75;10385332;28;20030;-72